createdAt,value
2019-05-07T00:02:03.499Z,13.73
2019-05-07T00:07:22.508Z,14.10
2019-05-07T00:12:43.128Z,15.17
2019-05-07T00:18:03.166Z,14.63
2019-05-07T00:23:23.164Z,15.37
2019-05-07T00:28:43.240Z,14.43
2019-05-07T00:34:02.884Z,15.27
2019-05-07T00:39:32.844Z,15.60
2019-05-07T00:45:14.220Z,16.20
2019-05-07T00:50:23.987Z,14.40
2019-05-07T00:55:42.637Z,15.23
2019-05-07T01:01:02.571Z,15.30
2019-05-07T01:06:22.773Z,15.90
2019-05-07T01:11:42.892Z,17.40
2019-05-07T01:17:02.434Z,16.80
2019-05-07T01:22:22.219Z,16.40
2019-05-07T01:27:42.658Z,16.47
2019-05-07T01:33:15.044Z,18.67
2019-05-07T01:38:34.757Z,17.40
2019-05-07T01:43:54.786Z,18.30
2019-05-07T01:49:13.462Z,17.70
2019-05-07T01:54:33.278Z,19.20
2019-05-07T01:59:52.859Z,19.57
2019-05-07T02:05:13.331Z,19.60
2019-05-07T02:10:34.839Z,21.50
2019-05-07T02:16:00.162Z,20.70
2019-05-07T02:21:14.143Z,19.13
2019-05-07T02:26:32.782Z,19.87
2019-05-07T02:31:53.107Z,19.50
2019-05-07T02:37:13.398Z,20.20
2019-05-07T02:42:33.592Z,20.70
2019-05-07T02:47:52.656Z,21.37
2019-05-07T02:53:29.189Z,20.90
2019-05-07T02:58:47.754Z,18.87
2019-05-07T03:04:06.861Z,19.23
2019-05-07T03:09:25.440Z,19.03
2019-05-07T03:14:44.120Z,19.90
2019-05-07T03:20:04.410Z,20.97
2019-05-07T03:25:24.690Z,20.63
2019-05-07T03:30:46.017Z,19.63
2019-05-07T03:36:07.779Z,20.53
2019-05-07T03:41:27.335Z,20.90
2019-05-07T03:46:57.846Z,20.83
2019-05-07T03:52:06.777Z,19.37
2019-05-07T03:57:25.510Z,19.63
2019-05-07T04:02:44.252Z,19.70
2019-05-07T04:08:03.519Z,20.97
2019-05-07T04:13:24.002Z,21.53
2019-05-07T04:18:43.678Z,22.37
2019-05-07T04:24:13.824Z,20.90
2019-05-07T04:29:35.100Z,22.23
2019-05-07T04:41:15.078Z,19.43
2019-05-07T04:46:33.898Z,20.52
2019-05-07T04:51:54.472Z,21.00
2019-05-07T04:57:26.064Z,22.53
2019-05-07T05:02:53.135Z,23.43
2019-05-07T05:08:13.350Z,20.27
2019-05-07T05:13:33.309Z,20.30
2019-05-07T05:18:52.540Z,18.20
2019-05-07T05:24:16.199Z,18.47
2019-05-07T05:29:36.311Z,18.73
2019-05-07T05:34:56.948Z,21.80
2019-05-07T05:40:15.966Z,16.93
2019-05-07T05:45:39.426Z,15.88
2019-05-07T05:51:02.785Z,16.70
2019-05-07T05:56:32.661Z,16.03
2019-05-07T06:02:03.399Z,16.00
2019-05-07T06:07:31.769Z,15.83
2019-05-07T06:12:52.286Z,15.23
2019-05-07T06:18:20.947Z,15.37
2019-05-07T06:23:34.554Z,14.70
2019-05-07T06:28:53.198Z,14.93
2019-05-07T06:34:12.500Z,15.50
2019-05-07T06:39:35.946Z,13.73
2019-05-07T06:45:12.463Z,13.93
2019-05-07T06:50:32.721Z,15.63
2019-05-07T06:55:52.126Z,14.67
2019-05-07T07:01:12.360Z,14.10
2019-05-07T07:06:35.816Z,11.77
2019-05-07T07:11:56.079Z,11.67
2019-05-07T07:17:14.725Z,11.40
2019-05-07T07:22:33.429Z,8.90
2019-05-07T07:27:52.185Z,11.37
2019-05-07T07:33:12.460Z,12.33
2019-05-07T07:38:35.284Z,12.97
2019-05-07T07:43:53.904Z,12.43
2019-05-07T07:49:15.128Z,10.70
2019-05-07T07:54:33.014Z,10.60
2019-05-07T07:59:55.640Z,10.80
2019-05-07T08:05:14.517Z,9.30
2019-05-07T08:10:33.213Z,9.53
2019-05-07T08:15:52.112Z,9.40
2019-05-07T08:21:12.033Z,9.87
2019-05-07T08:26:32.293Z,8.90
2019-05-07T08:32:09.134Z,8.47
2019-05-07T08:37:27.836Z,8.17
2019-05-07T08:42:46.457Z,7.70
2019-05-07T08:48:06.861Z,7.13
2019-05-07T08:53:25.502Z,7.20
2019-05-07T08:58:44.210Z,6.70
2019-05-07T09:04:02.903Z,8.13
2019-05-07T09:09:22.311Z,9.03
2019-05-07T09:14:42.553Z,7.77
2019-05-07T09:20:02.546Z,6.40
2019-05-07T09:25:22.305Z,6.83
2019-05-07T09:30:57.666Z,6.80
2019-05-07T09:36:17.952Z,7.23
2019-05-07T09:41:36.562Z,7.67
2019-05-07T09:46:55.185Z,7.60
2019-05-07T09:52:13.767Z,7.60
2019-05-07T09:57:34.780Z,8.33
2019-05-07T10:02:52.988Z,10.50
2019-05-07T10:08:12.885Z,10.33
2019-05-07T10:13:33.329Z,11.85
2019-05-07T10:18:52.103Z,9.30
2019-05-07T10:24:12.870Z,9.20
2019-05-07T10:29:32.198Z,8.57
2019-05-07T10:34:52.522Z,9.40
2019-05-07T10:40:12.400Z,9.28
2019-05-07T10:45:35.601Z,8.80
2019-05-07T10:50:55.863Z,9.30
2019-05-07T10:56:14.575Z,11.03
2019-05-07T11:01:38.574Z,11.10
2019-05-07T11:06:58.998Z,10.53
2019-05-07T11:12:17.617Z,12.23
2019-05-07T11:17:52.085Z,13.00
2019-05-07T11:23:10.833Z,13.53
2019-05-07T11:28:29.482Z,13.20
2019-05-07T11:33:48.414Z,12.20
2019-05-07T11:39:07.679Z,11.80
2019-05-07T11:44:27.978Z,11.37
2019-05-07T11:50:04.740Z,10.97
2019-05-07T11:55:23.459Z,11.33
2019-05-07T12:01:03.424Z,10.30
2019-05-07T12:06:21.680Z,10.37
2019-05-07T12:11:42.497Z,11.70
2019-05-07T12:17:02.690Z,10.17
2019-05-07T12:22:23.099Z,9.03
2019-05-07T12:27:41.977Z,9.43
2019-05-07T12:33:02.427Z,8.77
2019-05-07T12:38:21.882Z,9.30
2019-05-07T12:43:42.337Z,9.77
2019-05-07T12:49:03.087Z,10.77
2019-05-07T12:54:39.472Z,10.90
2019-05-07T13:00:01.958Z,9.63
2019-05-07T13:05:20.229Z,9.55
2019-05-07T13:10:38.876Z,10.90
2019-05-07T13:15:57.643Z,9.60
2019-05-07T13:21:16.307Z,9.73
2019-05-07T13:26:35.015Z,6.63
2019-05-07T13:31:55.791Z,5.63
2019-05-07T13:37:19.271Z,7.10
2019-05-07T13:42:43.982Z,7.03
2019-05-07T13:48:04.145Z,5.83
2019-05-07T13:53:22.999Z,6.90
2019-05-07T13:58:42.838Z,7.63
2019-05-07T14:04:03.989Z,8.53
2019-05-07T14:09:24.440Z,8.17
2019-05-07T14:14:43.346Z,11.43
2019-05-07T14:20:04.929Z,9.33
2019-05-07T14:25:24.122Z,10.63
2019-05-07T14:30:42.997Z,11.47
2019-05-07T14:36:03.281Z,2.92
2019-05-07T14:41:25.310Z,11.40
2019-05-07T14:46:50.350Z,11.57
2019-05-07T14:52:03.274Z,10.33
2019-05-07T14:57:22.279Z,10.07
2019-05-07T15:02:42.217Z,11.43
2019-05-07T15:08:10.727Z,10.97
2019-05-07T15:13:21.861Z,11.03
2019-05-07T15:18:43.562Z,10.37
2019-05-07T15:24:02.976Z,9.73
2019-05-07T15:29:22.352Z,9.13
2019-05-07T15:34:42.134Z,9.17
2019-05-07T15:40:02.466Z,9.43
2019-05-07T15:45:21.724Z,9.70
2019-05-07T15:50:42.719Z,9.63
2019-05-07T15:56:01.792Z,9.30
2019-05-07T16:01:22.183Z,9.13
2019-05-07T16:06:42.491Z,7.10
2019-05-07T16:12:01.617Z,7.27
2019-05-07T16:17:27.751Z,7.43
2019-05-07T16:22:54.820Z,6.77
2019-05-07T16:28:12.752Z,6.63
2019-05-07T16:33:34.746Z,7.43
2019-05-07T16:38:53.576Z,7.53
2019-05-07T16:44:12.438Z,7.70
2019-05-07T16:49:37.215Z,7.23
2019-05-07T16:54:55.844Z,7.83
2019-05-07T17:00:17.862Z,7.03
2019-05-07T17:05:36.488Z,7.90
2019-05-07T17:10:55.300Z,7.30
2019-05-07T17:16:14.425Z,7.47
2019-05-07T17:21:33.140Z,8.70
2019-05-07T17:26:51.888Z,7.50
2019-05-07T17:32:12.295Z,7.77
2019-05-07T17:37:33.003Z,7.30
2019-05-07T17:42:52.465Z,8.77
2019-05-07T17:48:12.351Z,8.27
2019-05-07T17:53:31.994Z,7.57
2019-05-07T17:58:52.251Z,7.73
2019-05-07T18:04:10.990Z,8.70
2019-05-07T18:09:31.739Z,7.60
2019-05-07T18:14:52.668Z,7.63
2019-05-07T18:20:12.881Z,7.20
2019-05-07T18:25:32.516Z,7.12
2019-05-07T18:30:51.252Z,6.57
2019-05-07T18:36:12.001Z,6.77
2019-05-07T18:41:32.559Z,6.77
2019-05-07T18:46:52.686Z,6.80
2019-05-07T18:52:12.203Z,7.50
2019-05-07T18:57:32.808Z,7.20
2019-05-07T19:02:53.288Z,7.73
2019-05-07T19:08:12.698Z,8.30
2019-05-07T19:13:32.617Z,8.70
2019-05-07T19:18:51.433Z,7.70
2019-05-07T19:24:10.244Z,8.57
2019-05-07T19:29:33.227Z,9.30
2019-05-07T19:34:53.427Z,11.63
2019-05-07T19:40:13.013Z,9.25
2019-05-07T19:45:31.711Z,8.83
2019-05-07T19:50:52.657Z,9.43
2019-05-07T19:56:18.830Z,9.77
2019-05-07T20:01:39.286Z,8.93
2019-05-07T20:06:59.300Z,9.10
2019-05-07T20:12:18.842Z,9.33
2019-05-07T20:17:37.531Z,9.53
2019-05-07T20:23:06.631Z,9.23
2019-05-07T20:28:25.274Z,9.07
2019-05-07T20:33:44.132Z,8.70
2019-05-07T20:39:04.775Z,9.30
2019-05-07T20:44:23.509Z,8.80
2019-05-07T20:49:42.859Z,7.53
2019-05-07T20:55:03.161Z,8.73
2019-05-07T21:00:23.674Z,8.80
2019-05-07T21:05:42.351Z,8.73
2019-05-07T21:11:02.561Z,9.93
2019-05-07T21:16:22.189Z,7.93
2019-05-07T21:21:42.223Z,9.87
2019-05-07T21:27:02.565Z,10.13
2019-05-07T21:32:23.138Z,11.33
2019-05-07T21:37:41.920Z,11.15
2019-05-07T21:43:00.564Z,10.83
2019-05-07T21:48:19.141Z,9.90
2019-05-07T21:53:39.428Z,9.57
2019-05-07T21:59:03.095Z,10.33
2019-05-07T22:04:21.980Z,10.73
2019-05-07T22:09:40.599Z,10.30
2019-05-07T22:14:59.151Z,11.50
2019-05-07T22:20:17.869Z,11.03
2019-05-07T22:25:36.432Z,10.77
2019-05-07T22:30:56.631Z,10.43
2019-05-07T22:36:15.348Z,10.97
2019-05-07T22:41:33.916Z,10.35
2019-05-07T22:46:52.855Z,10.73
2019-05-07T22:52:12.770Z,8.93
2019-05-07T22:57:48.287Z,8.03
2019-05-07T23:03:06.848Z,10.57
2019-05-07T23:08:25.480Z,8.23
2019-05-07T23:13:44.237Z,8.20
2019-05-07T23:19:02.802Z,8.95
2019-05-07T23:24:22.695Z,8.83
2019-05-07T23:29:43.773Z,8.40
2019-05-07T23:35:02.275Z,7.30
2019-05-07T23:40:28.345Z,5.97
2019-05-07T23:45:47.043Z,5.23
2019-05-07T23:51:05.607Z,5.50
2019-05-07T23:56:24.441Z,5.07
